sensor_id;sensor_type;location;lat;lon;timestamp;temperature;humidity
8261;DHT22;64115;50.170;8.242;2023-12-20T00:01:59;4.20;99.90
8261;DHT22;64115;50.170;8.242;2023-12-20T00:04:28;4.10;99.90
8261;DHT22;64115;50.170;8.242;2023-12-20T00:06:54;4.20;99.90
8261;DHT22;64115;50.170;8.242;2023-12-20T00:09:21;4.10;99.90
8261;DHT22;64115;50.170;8.242;2023-12-20T00:11:49;4.20;99.90
8261;DHT22;64115;50.170;8.242;2023-12-20T00:14:16;4.20;99.90
8261;DHT22;64115;50.170;8.242;2023-12-20T00:16:42;4.20;99.90
8261;DHT22;64115;50.170;8.242;2023-12-20T00:19:09;4.20;99.90
8261;DHT22;64115;50.170;8.242;2023-12-20T00:21:36;4.20;99.90
8261;DHT22;64115;50.170;8.242;2023-12-20T00:24:04;4.20;99.90
8261;DHT22;64115;50.170;8.242;2023-12-20T00:26:31;4.20;99.90
8261;DHT22;64115;50.170;8.242;2023-12-20T00:28:59;4.20;99.90
8261;DHT22;64115;50.170;8.242;2023-12-20T00:31:25;4.20;99.90
8261;DHT22;64115;50.170;8.242;2023-12-20T00:33:52;4.20;99.90
8261;DHT22;64115;50.170;8.242;2023-12-20T00:36:20;4.20;99.90
8261;DHT22;64115;50.170;8.242;2023-12-20T00:38:48;4.20;99.90
8261;DHT22;64115;50.170;8.242;2023-12-20T00:41:15;4.20;99.90
8261;DHT22;64115;50.170;8.242;2023-12-20T00:43:42;4.20;99.90
8261;DHT22;64115;50.170;8.242;2023-12-20T00:46:11;4.20;99.90
8261;DHT22;64115;50.170;8.242;2023-12-20T00:48:37;4.20;99.90
8261;DHT22;64115;50.170;8.242;2023-12-20T00:51:07;4.20;99.90
8261;DHT22;64115;50.170;8.242;2023-12-20T00:53:34;4.30;99.90
8261;DHT22;64115;50.170;8.242;2023-12-20T00:56:01;4.20;99.90
8261;DHT22;64115;50.170;8.242;2023-12-20T00:58:27;4.20;99.90
8261;DHT22;64115;50.170;8.242;2023-12-20T01:00:54;4.20;99.90
8261;DHT22;64115;50.170;8.242;2023-12-20T01:03:22;4.20;99.90
8261;DHT22;64115;50.170;8.242;2023-12-20T01:05:49;4.20;99.90
8261;DHT22;64115;50.170;8.242;2023-12-20T01:08:15;4.20;99.90
8261;DHT22;64115;50.170;8.242;2023-12-20T01:10:42;4.20;99.90
8261;DHT22;64115;50.170;8.242;2023-12-20T01:13:09;4.20;99.90
8261;DHT22;64115;50.170;8.242;2023-12-20T01:15:35;4.20;99.90
8261;DHT22;64115;50.170;8.242;2023-12-20T01:18:03;4.20;99.90
8261;DHT22;64115;50.170;8.242;2023-12-20T01:20:31;4.20;99.90
8261;DHT22;64115;50.170;8.242;2023-12-20T01:22:58;4.20;99.90
8261;DHT22;64115;50.170;8.242;2023-12-20T01:25:24;4.20;99.90
8261;DHT22;64115;50.170;8.242;2023-12-20T01:27:51;4.20;99.90
8261;DHT22;64115;50.170;8.242;2023-12-20T01:30:18;4.20;99.90
8261;DHT22;64115;50.170;8.242;2023-12-20T01:32:45;4.20;99.90
8261;DHT22;64115;50.170;8.242;2023-12-20T01:35:12;4.20;99.90
8261;DHT22;64115;50.170;8.242;2023-12-20T01:37:40;4.20;99.90
8261;DHT22;64115;50.170;8.242;2023-12-20T01:40:07;4.20;99.90
8261;DHT22;64115;50.170;8.242;2023-12-20T01:42:34;4.20;99.90
8261;DHT22;64115;50.170;8.242;2023-12-20T01:45:01;4.20;99.90
8261;DHT22;64115;50.170;8.242;2023-12-20T01:47:28;4.20;99.90
8261;DHT22;64115;50.170;8.242;2023-12-20T01:49:55;4.20;99.90
8261;DHT22;64115;50.170;8.242;2023-12-20T01:52:22;4.20;99.90
8261;DHT22;64115;50.170;8.242;2023-12-20T01:54:51;4.30;99.90
8261;DHT22;64115;50.170;8.242;2023-12-20T01:57:20;4.30;99.90
8261;DHT22;64115;50.170;8.242;2023-12-20T01:59:47;4.30;99.90
8261;DHT22;64115;50.170;8.242;2023-12-20T02:02:14;4.30;99.90
8261;DHT22;64115;50.170;8.242;2023-12-20T02:04:41;4.30;99.90
8261;DHT22;64115;50.170;8.242;2023-12-20T02:07:08;4.30;99.90
8261;DHT22;64115;50.170;8.242;2023-12-20T02:09:36;4.30;99.90
8261;DHT22;64115;50.170;8.242;2023-12-20T02:12:05;4.40;99.90
8261;DHT22;64115;50.170;8.242;2023-12-20T02:14:32;4.30;99.90
8261;DHT22;64115;50.170;8.242;2023-12-20T02:16:58;4.40;99.90
8261;DHT22;64115;50.170;8.242;2023-12-20T02:19:25;4.40;99.90
8261;DHT22;64115;50.170;8.242;2023-12-20T02:22:07;4.30;99.90
8261;DHT22;64115;50.170;8.242;2023-12-20T02:24:33;4.40;99.90
8261;DHT22;64115;50.170;8.242;2023-12-20T02:27:00;4.40;99.90
8261;DHT22;64115;50.170;8.242;2023-12-20T02:29:27;4.40;99.90
8261;DHT22;64115;50.170;8.242;2023-12-20T02:31:53;4.40;99.90
8261;DHT22;64115;50.170;8.242;2023-12-20T02:34:20;4.40;99.90
8261;DHT22;64115;50.170;8.242;2023-12-20T02:36:47;4.40;99.90
8261;DHT22;64115;50.170;8.242;2023-12-20T02:39:15;4.40;99.90
8261;DHT22;64115;50.170;8.242;2023-12-20T02:41:42;4.50;99.90
8261;DHT22;64115;50.170;8.242;2023-12-20T02:44:09;4.50;99.90
8261;DHT22;64115;50.170;8.242;2023-12-20T02:46:35;4.50;99.90
8261;DHT22;64115;50.170;8.242;2023-12-20T02:49:02;4.50;99.90
8261;DHT22;64115;50.170;8.242;2023-12-20T02:51:29;4.50;99.90
8261;DHT22;64115;50.170;8.242;2023-12-20T02:53:55;4.50;99.90
8261;DHT22;64115;50.170;8.242;2023-12-20T02:56:23;4.50;99.90
8261;DHT22;64115;50.170;8.242;2023-12-20T02:58:50;4.50;99.90
8261;DHT22;64115;50.170;8.242;2023-12-20T03:01:17;4.60;99.90
8261;DHT22;64115;50.170;8.242;2023-12-20T03:03:44;4.60;99.90
8261;DHT22;64115;50.170;8.242;2023-12-20T03:06:11;4.60;99.90
8261;DHT22;64115;50.170;8.242;2023-12-20T03:08:38;4.60;99.90
8261;DHT22;64115;50.170;8.242;2023-12-20T03:11:06;4.60;99.90
8261;DHT22;64115;50.170;8.242;2023-12-20T03:13:34;4.60;99.90
8261;DHT22;64115;50.170;8.242;2023-12-20T03:16:01;4.60;99.90
8261;DHT22;64115;50.170;8.242;2023-12-20T03:18:28;4.60;99.90
8261;DHT22;64115;50.170;8.242;2023-12-20T03:20:54;4.60;99.90
8261;DHT22;64115;50.170;8.242;2023-12-20T03:23:21;4.60;99.90
8261;DHT22;64115;50.170;8.242;2023-12-20T03:25:48;4.70;99.90
8261;DHT22;64115;50.170;8.242;2023-12-20T03:28:15;4.70;99.90
8261;DHT22;64115;50.170;8.242;2023-12-20T03:30:43;4.70;99.90
8261;DHT22;64115;50.170;8.242;2023-12-20T03:33:10;4.70;99.90
8261;DHT22;64115;50.170;8.242;2023-12-20T03:35:37;4.70;99.90
8261;DHT22;64115;50.170;8.242;2023-12-20T03:38:03;4.80;99.90
8261;DHT22;64115;50.170;8.242;2023-12-20T03:40:30;4.80;99.90
8261;DHT22;64115;50.170;8.242;2023-12-20T03:42:57;4.80;99.90
8261;DHT22;64115;50.170;8.242;2023-12-20T03:45:24;4.80;99.90
8261;DHT22;64115;50.170;8.242;2023-12-20T03:47:52;4.80;99.90
8261;DHT22;64115;50.170;8.242;2023-12-20T03:50:21;4.80;99.90
8261;DHT22;64115;50.170;8.242;2023-12-20T03:52:48;4.80;99.90
8261;DHT22;64115;50.170;8.242;2023-12-20T03:55:15;4.80;99.90
8261;DHT22;64115;50.170;8.242;2023-12-20T03:57:42;4.80;99.90
8261;DHT22;64115;50.170;8.242;2023-12-20T04:00:10;4.80;99.90
8261;DHT22;64115;50.170;8.242;2023-12-20T04:02:37;4.80;99.90
8261;DHT22;64115;50.170;8.242;2023-12-20T04:05:06;4.80;99.90
8261;DHT22;64115;50.170;8.242;2023-12-20T04:07:32;4.80;99.90
8261;DHT22;64115;50.170;8.242;2023-12-20T04:10:00;4.80;99.90
8261;DHT22;64115;50.170;8.242;2023-12-20T04:12:27;4.80;99.90
8261;DHT22;64115;50.170;8.242;2023-12-20T04:14:54;4.80;99.90
8261;DHT22;64115;50.170;8.242;2023-12-20T04:17:21;4.80;99.90
8261;DHT22;64115;50.170;8.242;2023-12-20T04:19:48;4.80;99.90
8261;DHT22;64115;50.170;8.242;2023-12-20T04:22:17;4.70;99.90
8261;DHT22;64115;50.170;8.242;2023-12-20T04:24:44;4.70;99.90
8261;DHT22;64115;50.170;8.242;2023-12-20T04:27:11;4.60;99.90
8261;DHT22;64115;50.170;8.242;2023-12-20T04:29:37;4.60;99.90
8261;DHT22;64115;50.170;8.242;2023-12-20T04:32:05;4.60;99.90
8261;DHT22;64115;50.170;8.242;2023-12-20T04:34:31;4.50;99.90
8261;DHT22;64115;50.170;8.242;2023-12-20T04:36:58;4.50;99.90
8261;DHT22;64115;50.170;8.242;2023-12-20T04:39:29;4.40;99.90
8261;DHT22;64115;50.170;8.242;2023-12-20T04:41:55;4.40;99.90
8261;DHT22;64115;50.170;8.242;2023-12-20T04:44:22;4.40;99.90
8261;DHT22;64115;50.170;8.242;2023-12-20T04:46:49;4.30;99.90
8261;DHT22;64115;50.170;8.242;2023-12-20T04:49:16;4.20;99.90
8261;DHT22;64115;50.170;8.242;2023-12-20T04:51:42;4.20;99.90
8261;DHT22;64115;50.170;8.242;2023-12-20T04:54:09;4.10;99.90
8261;DHT22;64115;50.170;8.242;2023-12-20T04:56:38;4.00;99.90
8261;DHT22;64115;50.170;8.242;2023-12-20T04:59:05;3.90;99.90
8261;DHT22;64115;50.170;8.242;2023-12-20T05:01:32;3.70;99.90
8261;DHT22;64115;50.170;8.242;2023-12-20T05:03:59;3.50;99.90
8261;DHT22;64115;50.170;8.242;2023-12-20T05:06:25;3.40;99.90
8261;DHT22;64115;50.170;8.242;2023-12-20T05:08:52;3.40;99.90
8261;DHT22;64115;50.170;8.242;2023-12-20T05:11:19;3.40;99.90
8261;DHT22;64115;50.170;8.242;2023-12-20T05:13:47;3.50;99.90
8261;DHT22;64115;50.170;8.242;2023-12-20T05:16:14;3.50;99.90
8261;DHT22;64115;50.170;8.242;2023-12-20T05:18:43;3.60;99.90
8261;DHT22;64115;50.170;8.242;2023-12-20T05:21:10;3.50;99.90
8261;DHT22;64115;50.170;8.242;2023-12-20T05:23:36;3.60;99.90
8261;DHT22;64115;50.170;8.242;2023-12-20T05:26:03;3.50;99.90
8261;DHT22;64115;50.170;8.242;2023-12-20T05:28:30;3.50;99.90
8261;DHT22;64115;50.170;8.242;2023-12-20T05:30:58;3.50;99.90
8261;DHT22;64115;50.170;8.242;2023-12-20T05:33:25;3.50;99.90
8261;DHT22;64115;50.170;8.242;2023-12-20T05:35:51;3.50;99.90
8261;DHT22;64115;50.170;8.242;2023-12-20T05:38:18;3.40;99.90
8261;DHT22;64115;50.170;8.242;2023-12-20T05:40:45;3.40;99.90
8261;DHT22;64115;50.170;8.242;2023-12-20T05:43:12;3.30;99.90
8261;DHT22;64115;50.170;8.242;2023-12-20T05:45:39;3.20;99.90
8261;DHT22;64115;50.170;8.242;2023-12-20T05:48:07;3.10;99.90
8261;DHT22;64115;50.170;8.242;2023-12-20T05:50:34;3.00;99.90
8261;DHT22;64115;50.170;8.242;2023-12-20T05:53:01;3.00;99.90
8261;DHT22;64115;50.170;8.242;2023-12-20T05:55:27;3.00;99.90
8261;DHT22;64115;50.170;8.242;2023-12-20T05:57:54;2.90;99.90
8261;DHT22;64115;50.170;8.242;2023-12-20T06:00:21;2.80;99.90
8261;DHT22;64115;50.170;8.242;2023-12-20T06:02:47;2.80;99.90
8261;DHT22;64115;50.170;8.242;2023-12-20T06:05:15;2.70;99.90
8261;DHT22;64115;50.170;8.242;2023-12-20T06:07:42;2.60;99.90
8261;DHT22;64115;50.170;8.242;2023-12-20T06:10:10;2.50;99.90
8261;DHT22;64115;50.170;8.242;2023-12-20T06:12:37;2.50;99.90
8261;DHT22;64115;50.170;8.242;2023-12-20T06:15:04;2.50;99.90
8261;DHT22;64115;50.170;8.242;2023-12-20T06:17:31;2.40;99.90
8261;DHT22;64115;50.170;8.242;2023-12-20T06:20:01;2.40;99.90
8261;DHT22;64115;50.170;8.242;2023-12-20T06:22:34;2.40;99.90
8261;DHT22;64115;50.170;8.242;2023-12-20T06:25:01;2.40;99.90
8261;DHT22;64115;50.170;8.242;2023-12-20T06:27:28;2.40;99.90
8261;DHT22;64115;50.170;8.242;2023-12-20T06:29:55;2.30;99.90
8261;DHT22;64115;50.170;8.242;2023-12-20T06:32:22;2.30;99.90
8261;DHT22;64115;50.170;8.242;2023-12-20T06:34:49;2.30;99.90
8261;DHT22;64115;50.170;8.242;2023-12-20T06:37:16;2.20;99.90
8261;DHT22;64115;50.170;8.242;2023-12-20T06:39:44;2.20;99.90
8261;DHT22;64115;50.170;8.242;2023-12-20T06:42:12;2.20;99.90
8261;DHT22;64115;50.170;8.242;2023-12-20T06:44:38;2.10;99.90
8261;DHT22;64115;50.170;8.242;2023-12-20T06:47:05;2.10;99.90
8261;DHT22;64115;50.170;8.242;2023-12-20T06:49:32;2.20;99.90
8261;DHT22;64115;50.170;8.242;2023-12-20T06:51:58;2.30;99.90
8261;DHT22;64115;50.170;8.242;2023-12-20T06:54:25;2.40;99.90
8261;DHT22;64115;50.170;8.242;2023-12-20T06:56:53;2.40;99.90
8261;DHT22;64115;50.170;8.242;2023-12-20T06:59:20;2.50;99.90
8261;DHT22;64115;50.170;8.242;2023-12-20T07:01:48;2.60;99.90
8261;DHT22;64115;50.170;8.242;2023-12-20T07:04:15;2.50;99.90
8261;DHT22;64115;50.170;8.242;2023-12-20T07:06:42;2.50;99.90
8261;DHT22;64115;50.170;8.242;2023-12-20T07:09:08;2.50;99.90
8261;DHT22;64115;50.170;8.242;2023-12-20T07:11:35;2.50;99.90
8261;DHT22;64115;50.170;8.242;2023-12-20T07:14:03;2.50;99.90
8261;DHT22;64115;50.170;8.242;2023-12-20T07:16:30;2.40;99.90
8261;DHT22;64115;50.170;8.242;2023-12-20T07:18:57;2.40;99.90
8261;DHT22;64115;50.170;8.242;2023-12-20T07:21:24;2.50;99.90
8261;DHT22;64115;50.170;8.242;2023-12-20T07:23:51;2.60;99.90
8261;DHT22;64115;50.170;8.242;2023-12-20T07:26:17;2.70;99.90
8261;DHT22;64115;50.170;8.242;2023-12-20T07:28:45;2.80;99.90
8261;DHT22;64115;50.170;8.242;2023-12-20T07:31:13;2.80;99.90
8261;DHT22;64115;50.170;8.242;2023-12-20T07:33:41;2.90;99.90
8261;DHT22;64115;50.170;8.242;2023-12-20T07:36:08;2.90;99.90
8261;DHT22;64115;50.170;8.242;2023-12-20T07:38:35;3.00;99.90
8261;DHT22;64115;50.170;8.242;2023-12-20T07:41:02;3.00;99.90
8261;DHT22;64115;50.170;8.242;2023-12-20T07:43:28;3.10;99.90
8261;DHT22;64115;50.170;8.242;2023-12-20T07:45:55;3.10;99.90
8261;DHT22;64115;50.170;8.242;2023-12-20T07:48:23;3.20;99.90
8261;DHT22;64115;50.170;8.242;2023-12-20T07:50:50;3.20;99.90
8261;DHT22;64115;50.170;8.242;2023-12-20T07:53:18;3.20;99.90
8261;DHT22;64115;50.170;8.242;2023-12-20T07:55:45;3.20;99.90
8261;DHT22;64115;50.170;8.242;2023-12-20T07:58:12;3.30;99.90
8261;DHT22;64115;50.170;8.242;2023-12-20T08:00:38;3.30;99.90
8261;DHT22;64115;50.170;8.242;2023-12-20T08:03:05;3.30;99.90
8261;DHT22;64115;50.170;8.242;2023-12-20T08:05:33;3.30;99.90
8261;DHT22;64115;50.170;8.242;2023-12-20T08:08:00;3.30;99.90
8261;DHT22;64115;50.170;8.242;2023-12-20T08:10:27;3.30;99.90
8261;DHT22;64115;50.170;8.242;2023-12-20T08:12:55;3.30;99.90
8261;DHT22;64115;50.170;8.242;2023-12-20T08:15:21;3.40;99.90
8261;DHT22;64115;50.170;8.242;2023-12-20T08:17:49;3.50;99.90
8261;DHT22;64115;50.170;8.242;2023-12-20T08:20:16;3.40;99.90
8261;DHT22;64115;50.170;8.242;2023-12-20T08:22:44;3.50;99.90
8261;DHT22;64115;50.170;8.242;2023-12-20T08:25:11;3.50;99.90
8261;DHT22;64115;50.170;8.242;2023-12-20T08:27:40;3.50;99.90
8261;DHT22;64115;50.170;8.242;2023-12-20T08:30:08;3.50;99.90
8261;DHT22;64115;50.170;8.242;2023-12-20T08:32:35;3.50;99.90
8261;DHT22;64115;50.170;8.242;2023-12-20T08:35:03;3.50;99.90
8261;DHT22;64115;50.170;8.242;2023-12-20T08:37:30;3.60;99.90
8261;DHT22;64115;50.170;8.242;2023-12-20T08:39:58;3.70;99.90
8261;DHT22;64115;50.170;8.242;2023-12-20T08:42:24;3.60;99.90
8261;DHT22;64115;50.170;8.242;2023-12-20T08:44:56;3.70;99.90
8261;DHT22;64115;50.170;8.242;2023-12-20T08:47:23;3.70;99.90
8261;DHT22;64115;50.170;8.242;2023-12-20T08:49:50;3.70;99.90
8261;DHT22;64115;50.170;8.242;2023-12-20T08:52:19;3.70;99.90
8261;DHT22;64115;50.170;8.242;2023-12-20T08:54:45;3.70;99.90
8261;DHT22;64115;50.170;8.242;2023-12-20T08:57:13;3.80;99.90
8261;DHT22;64115;50.170;8.242;2023-12-20T08:59:40;3.80;99.90
8261;DHT22;64115;50.170;8.242;2023-12-20T09:02:07;3.80;99.90
8261;DHT22;64115;50.170;8.242;2023-12-20T09:04:33;3.90;99.90
8261;DHT22;64115;50.170;8.242;2023-12-20T09:07:00;3.90;99.90
8261;DHT22;64115;50.170;8.242;2023-12-20T09:09:27;3.90;99.90
8261;DHT22;64115;50.170;8.242;2023-12-20T09:11:54;3.90;99.90
8261;DHT22;64115;50.170;8.242;2023-12-20T09:14:22;3.90;99.90
8261;DHT22;64115;50.170;8.242;2023-12-20T09:16:49;4.00;99.90
8261;DHT22;64115;50.170;8.242;2023-12-20T09:19:16;4.00;99.90
8261;DHT22;64115;50.170;8.242;2023-12-20T09:21:43;4.00;99.90
8261;DHT22;64115;50.170;8.242;2023-12-20T09:24:10;4.00;99.90
8261;DHT22;64115;50.170;8.242;2023-12-20T09:26:37;4.10;99.90
8261;DHT22;64115;50.170;8.242;2023-12-20T09:29:05;4.10;99.90
8261;DHT22;64115;50.170;8.242;2023-12-20T09:31:36;4.10;99.90
8261;DHT22;64115;50.170;8.242;2023-12-20T09:34:03;4.20;99.90
8261;DHT22;64115;50.170;8.242;2023-12-20T09:36:30;4.20;99.90
8261;DHT22;64115;50.170;8.242;2023-12-20T09:39:01;4.20;99.90
8261;DHT22;64115;50.170;8.242;2023-12-20T09:41:32;4.20;99.90
8261;DHT22;64115;50.170;8.242;2023-12-20T09:44:02;4.30;99.90
8261;DHT22;64115;50.170;8.242;2023-12-20T09:46:34;4.30;99.90
8261;DHT22;64115;50.170;8.242;2023-12-20T09:49:01;4.30;99.90
8261;DHT22;64115;50.170;8.242;2023-12-20T09:51:29;4.30;99.90
8261;DHT22;64115;50.170;8.242;2023-12-20T09:53:57;4.40;99.90
8261;DHT22;64115;50.170;8.242;2023-12-20T09:56:25;4.50;99.90
8261;DHT22;64115;50.170;8.242;2023-12-20T09:58:52;4.50;99.90
8261;DHT22;64115;50.170;8.242;2023-12-20T10:01:20;4.50;99.90
8261;DHT22;64115;50.170;8.242;2023-12-20T10:03:51;4.50;99.90
8261;DHT22;64115;50.170;8.242;2023-12-20T10:06:20;4.50;99.90
8261;DHT22;64115;50.170;8.242;2023-12-20T10:08:47;4.50;99.90
8261;DHT22;64115;50.170;8.242;2023-12-20T10:11:14;4.50;99.90
8261;DHT22;64115;50.170;8.242;2023-12-20T10:13:41;4.60;99.90
8261;DHT22;64115;50.170;8.242;2023-12-20T10:16:08;4.70;99.90
8261;DHT22;64115;50.170;8.242;2023-12-20T10:18:35;4.80;99.90
8261;DHT22;64115;50.170;8.242;2023-12-20T10:21:03;4.90;99.90
8261;DHT22;64115;50.170;8.242;2023-12-20T10:23:30;4.90;99.90
8261;DHT22;64115;50.170;8.242;2023-12-20T10:25:57;5.00;99.90
8261;DHT22;64115;50.170;8.242;2023-12-20T10:28:25;4.90;99.90
8261;DHT22;64115;50.170;8.242;2023-12-20T10:30:53;4.90;99.90
8261;DHT22;64115;50.170;8.242;2023-12-20T10:33:24;4.90;99.90
8261;DHT22;64115;50.170;8.242;2023-12-20T10:35:52;4.90;99.90
8261;DHT22;64115;50.170;8.242;2023-12-20T10:38:20;5.00;99.90
8261;DHT22;64115;50.170;8.242;2023-12-20T10:40:47;5.00;99.90
8261;DHT22;64115;50.170;8.242;2023-12-20T10:43:15;5.00;99.90
8261;DHT22;64115;50.170;8.242;2023-12-20T10:45:42;5.10;99.90
8261;DHT22;64115;50.170;8.242;2023-12-20T10:48:10;5.10;99.90
8261;DHT22;64115;50.170;8.242;2023-12-20T10:50:38;5.00;99.90
8261;DHT22;64115;50.170;8.242;2023-12-20T10:53:06;4.90;99.90
8261;DHT22;64115;50.170;8.242;2023-12-20T10:55:35;4.90;99.90
8261;DHT22;64115;50.170;8.242;2023-12-20T10:58:04;4.80;99.90
8261;DHT22;64115;50.170;8.242;2023-12-20T11:00:34;4.90;99.90
8261;DHT22;64115;50.170;8.242;2023-12-20T11:03:01;5.10;99.90
8261;DHT22;64115;50.170;8.242;2023-12-20T11:05:36;5.30;99.90
8261;DHT22;64115;50.170;8.242;2023-12-20T11:08:09;5.30;99.90
8261;DHT22;64115;50.170;8.242;2023-12-20T11:10:42;5.40;99.90
8261;DHT22;64115;50.170;8.242;2023-12-20T11:13:19;5.50;99.90
8261;DHT22;64115;50.170;8.242;2023-12-20T11:15:47;5.50;99.90
8261;DHT22;64115;50.170;8.242;2023-12-20T11:18:15;5.50;99.90
8261;DHT22;64115;50.170;8.242;2023-12-20T11:20:42;5.40;99.90
8261;DHT22;64115;50.170;8.242;2023-12-20T11:23:09;5.50;99.90
8261;DHT22;64115;50.170;8.242;2023-12-20T11:25:49;5.40;99.90
8261;DHT22;64115;50.170;8.242;2023-12-20T11:28:21;5.50;99.90
8261;DHT22;64115;50.170;8.242;2023-12-20T11:30:50;5.60;99.90
8261;DHT22;64115;50.170;8.242;2023-12-20T11:33:21;5.60;99.90
8261;DHT22;64115;50.170;8.242;2023-12-20T11:35:48;5.70;99.90
8261;DHT22;64115;50.170;8.242;2023-12-20T11:38:15;5.80;99.90
8261;DHT22;64115;50.170;8.242;2023-12-20T11:40:42;5.80;99.90
8261;DHT22;64115;50.170;8.242;2023-12-20T11:43:11;5.60;99.90
8261;DHT22;64115;50.170;8.242;2023-12-20T11:45:49;5.60;99.90
8261;DHT22;64115;50.170;8.242;2023-12-20T11:48:17;5.50;99.90
8261;DHT22;64115;50.170;8.242;2023-12-20T11:50:45;5.50;99.90
8261;DHT22;64115;50.170;8.242;2023-12-20T11:53:12;5.40;99.90
8261;DHT22;64115;50.170;8.242;2023-12-20T11:55:38;5.40;99.90
8261;DHT22;64115;50.170;8.242;2023-12-20T11:58:05;5.40;99.90
8261;DHT22;64115;50.170;8.242;2023-12-20T12:00:35;5.30;99.90
8261;DHT22;64115;50.170;8.242;2023-12-20T12:03:02;5.20;99.90
8261;DHT22;64115;50.170;8.242;2023-12-20T12:05:31;5.10;99.90
8261;DHT22;64115;50.170;8.242;2023-12-20T12:07:58;5.10;99.90
8261;DHT22;64115;50.170;8.242;2023-12-20T12:10:27;5.30;99.90
8261;DHT22;64115;50.170;8.242;2023-12-20T12:12:54;5.30;99.90
8261;DHT22;64115;50.170;8.242;2023-12-20T12:15:21;5.40;99.90
8261;DHT22;64115;50.170;8.242;2023-12-20T12:17:54;5.40;99.90
8261;DHT22;64115;50.170;8.242;2023-12-20T12:20:21;5.50;99.90
8261;DHT22;64115;50.170;8.242;2023-12-20T12:22:57;5.60;99.90
8261;DHT22;64115;50.170;8.242;2023-12-20T12:25:25;5.50;99.90
8261;DHT22;64115;50.170;8.242;2023-12-20T12:27:51;5.50;99.90
8261;DHT22;64115;50.170;8.242;2023-12-20T12:30:18;5.30;99.90
8261;DHT22;64115;50.170;8.242;2023-12-20T12:32:45;5.20;99.90
8261;DHT22;64115;50.170;8.242;2023-12-20T12:35:14;5.00;99.90
8261;DHT22;64115;50.170;8.242;2023-12-20T12:37:41;4.90;99.90
8261;DHT22;64115;50.170;8.242;2023-12-20T12:40:10;4.90;99.90
8261;DHT22;64115;50.170;8.242;2023-12-20T12:42:37;4.90;99.90
8261;DHT22;64115;50.170;8.242;2023-12-20T12:45:05;4.90;99.90
8261;DHT22;64115;50.170;8.242;2023-12-20T12:47:32;5.00;99.90
8261;DHT22;64115;50.170;8.242;2023-12-20T12:49:59;5.10;99.90
8261;DHT22;64115;50.170;8.242;2023-12-20T12:52:27;5.10;99.90
8261;DHT22;64115;50.170;8.242;2023-12-20T12:54:54;5.20;99.90
8261;DHT22;64115;50.170;8.242;2023-12-20T12:57:21;5.20;99.90
8261;DHT22;64115;50.170;8.242;2023-12-20T12:59:48;5.20;99.90
8261;DHT22;64115;50.170;8.242;2023-12-20T13:02:15;5.30;99.90
8261;DHT22;64115;50.170;8.242;2023-12-20T13:04:42;5.30;99.90
8261;DHT22;64115;50.170;8.242;2023-12-20T13:07:09;5.30;99.90
8261;DHT22;64115;50.170;8.242;2023-12-20T13:09:38;5.40;99.90
8261;DHT22;64115;50.170;8.242;2023-12-20T13:12:06;5.40;99.90
8261;DHT22;64115;50.170;8.242;2023-12-20T13:14:34;5.40;99.90
8261;DHT22;64115;50.170;8.242;2023-12-20T13:17:02;5.50;99.90
8261;DHT22;64115;50.170;8.242;2023-12-20T13:19:29;5.50;99.90
8261;DHT22;64115;50.170;8.242;2023-12-20T13:21:57;5.50;99.90
8261;DHT22;64115;50.170;8.242;2023-12-20T13:24:24;5.30;99.90
8261;DHT22;64115;50.170;8.242;2023-12-20T13:26:52;5.20;99.90
8261;DHT22;64115;50.170;8.242;2023-12-20T13:29:18;5.10;99.90
8261;DHT22;64115;50.170;8.242;2023-12-20T13:31:45;5.00;99.90
8261;DHT22;64115;50.170;8.242;2023-12-20T13:34:12;5.00;99.90
8261;DHT22;64115;50.170;8.242;2023-12-20T13:36:39;5.00;99.90
8261;DHT22;64115;50.170;8.242;2023-12-20T13:39:05;5.20;99.90
8261;DHT22;64115;50.170;8.242;2023-12-20T13:41:33;5.20;99.90
8261;DHT22;64115;50.170;8.242;2023-12-20T13:44:01;5.20;99.90
8261;DHT22;64115;50.170;8.242;2023-12-20T13:46:28;5.20;99.90
8261;DHT22;64115;50.170;8.242;2023-12-20T13:48:55;5.20;99.90
8261;DHT22;64115;50.170;8.242;2023-12-20T13:51:22;5.20;99.90
8261;DHT22;64115;50.170;8.242;2023-12-20T13:53:49;5.20;99.90
8261;DHT22;64115;50.170;8.242;2023-12-20T13:56:16;5.20;99.90
8261;DHT22;64115;50.170;8.242;2023-12-20T13:58:43;5.10;99.90
8261;DHT22;64115;50.170;8.242;2023-12-20T14:01:13;5.10;99.90
8261;DHT22;64115;50.170;8.242;2023-12-20T14:03:40;5.00;99.90
8261;DHT22;64115;50.170;8.242;2023-12-20T14:06:07;5.00;99.90
8261;DHT22;64115;50.170;8.242;2023-12-20T14:08:34;5.00;99.90
8261;DHT22;64115;50.170;8.242;2023-12-20T14:11:01;5.00;99.90
8261;DHT22;64115;50.170;8.242;2023-12-20T14:13:28;5.00;99.90
8261;DHT22;64115;50.170;8.242;2023-12-20T14:15:55;5.00;99.90
8261;DHT22;64115;50.170;8.242;2023-12-20T14:18:23;5.00;99.90
8261;DHT22;64115;50.170;8.242;2023-12-20T14:20:50;4.90;99.90
8261;DHT22;64115;50.170;8.242;2023-12-20T14:23:16;4.90;99.90
8261;DHT22;64115;50.170;8.242;2023-12-20T14:25:43;5.00;99.90
8261;DHT22;64115;50.170;8.242;2023-12-20T14:28:10;4.90;99.90
8261;DHT22;64115;50.170;8.242;2023-12-20T14:30:39;4.90;99.90
8261;DHT22;64115;50.170;8.242;2023-12-20T14:33:06;4.80;99.90
8261;DHT22;64115;50.170;8.242;2023-12-20T14:35:35;4.80;99.90
8261;DHT22;64115;50.170;8.242;2023-12-20T14:38:01;4.70;99.90
8261;DHT22;64115;50.170;8.242;2023-12-20T14:40:28;4.70;99.90
8261;DHT22;64115;50.170;8.242;2023-12-20T14:42:55;4.70;99.90
8261;DHT22;64115;50.170;8.242;2023-12-20T14:45:22;4.70;99.90
8261;DHT22;64115;50.170;8.242;2023-12-20T14:47:49;4.70;99.90
8261;DHT22;64115;50.170;8.242;2023-12-20T14:50:15;4.60;99.90
8261;DHT22;64115;50.170;8.242;2023-12-20T14:52:45;4.60;99.90
8261;DHT22;64115;50.170;8.242;2023-12-20T14:55:12;4.60;99.90
8261;DHT22;64115;50.170;8.242;2023-12-20T14:57:39;4.60;99.90
8261;DHT22;64115;50.170;8.242;2023-12-20T15:00:07;4.50;99.90
8261;DHT22;64115;50.170;8.242;2023-12-20T15:02:34;4.50;99.90
8261;DHT22;64115;50.170;8.242;2023-12-20T15:05:01;4.50;99.90
8261;DHT22;64115;50.170;8.242;2023-12-20T15:07:28;4.50;99.90
8261;DHT22;64115;50.170;8.242;2023-12-20T15:09:56;4.50;99.90
8261;DHT22;64115;50.170;8.242;2023-12-20T15:12:23;4.40;99.90
8261;DHT22;64115;50.170;8.242;2023-12-20T15:14:50;4.40;99.90
8261;DHT22;64115;50.170;8.242;2023-12-20T15:17:16;4.40;99.90
8261;DHT22;64115;50.170;8.242;2023-12-20T15:19:43;4.40;99.90
8261;DHT22;64115;50.170;8.242;2023-12-20T15:22:10;4.40;99.90
8261;DHT22;64115;50.170;8.242;2023-12-20T15:24:37;4.30;99.90
8261;DHT22;64115;50.170;8.242;2023-12-20T15:27:07;4.30;99.90
8261;DHT22;64115;50.170;8.242;2023-12-20T15:29:34;4.40;99.90
8261;DHT22;64115;50.170;8.242;2023-12-20T15:32:01;4.40;99.90
8261;DHT22;64115;50.170;8.242;2023-12-20T15:34:28;4.30;99.90
8261;DHT22;64115;50.170;8.242;2023-12-20T15:36:55;4.30;99.90
8261;DHT22;64115;50.170;8.242;2023-12-20T15:39:22;4.30;99.90
8261;DHT22;64115;50.170;8.242;2023-12-20T15:41:49;4.40;99.90
8261;DHT22;64115;50.170;8.242;2023-12-20T15:44:17;4.40;99.90
8261;DHT22;64115;50.170;8.242;2023-12-20T15:46:44;4.40;99.90
8261;DHT22;64115;50.170;8.242;2023-12-20T15:49:10;4.40;99.90
8261;DHT22;64115;50.170;8.242;2023-12-20T15:51:37;4.40;99.90
8261;DHT22;64115;50.170;8.242;2023-12-20T15:54:04;4.40;99.90
8261;DHT22;64115;50.170;8.242;2023-12-20T15:56:33;4.40;99.90
8261;DHT22;64115;50.170;8.242;2023-12-20T15:59:00;4.50;99.90
8261;DHT22;64115;50.170;8.242;2023-12-20T16:01:29;4.50;99.90
8261;DHT22;64115;50.170;8.242;2023-12-20T16:03:56;4.50;99.90